WetterOnline ( http://www.wetteronline.de )

Wetter aktuell Hockweiler

Aktuelles Wetter: Trier/Petrisberg (273m)

6-stündlich | Neueste Meldungen
Ortszeit Temperatur Wetter
Sa, 23.03. 13:00 14.4° C leicht bewölkt
Sa, 23.03. 7:00 2.1° C wolkig
Sa, 23.03. 1:00 6.2° C wolkenlos
Fr, 22.03. 19:00 15.3° C wolkig
Fr, 22.03. 13:00 17.1° C leicht bewölkt
Fr, 22.03. 7:00 1.8° C wolkenlos
Fr, 22.03. 1:00 6.2° C wolkenlos
Do, 21.03. 19:00 12.9° C wolkig
Ortszeit Temperatur Wetter
Sa, 23.03. 15:00 16.0° C leicht bewölkt
Sa, 23.03. 14:50 16.0° C wolkig
Sa, 23.03. 14:40 16.3° C leicht bewölkt
Sa, 23.03. 14:30 15.6° C wolkig
Sa, 23.03. 14:20 15.6° C wolkig
Sa, 23.03. 14:10 15.9° C wolkig
Sa, 23.03. 14:00 15.3° C leicht bewölkt
Sa, 23.03. 13:30 15.3° C wolkig
Sa, 23.03. 13:00 14.4° C leicht bewölkt
Sa, 23.03. 12:30 13.8° C wolkig
Sa, 23.03. 12:00 14.1° C leicht bewölkt
Ortszeit Relative Feuchte Sichtweite
Sa, 23.03. 13:00 47% 17 km
Sa, 23.03. 7:00 88% 14 km
Sa, 23.03. 1:00 68% 30 km
Fr, 22.03. 19:00 35% 55 km
Fr, 22.03. 13:00 34% 55 km
Fr, 22.03. 7:00 84% 50 km
Fr, 22.03. 1:00 62% 70 km
Do, 21.03. 19:00 30% 70 km
Ortszeit Relative Feuchte Sichtweite
Sa, 23.03. 15:00 40% 18 km
Sa, 23.03. 14:50 40% -
Sa, 23.03. 14:40 42% -
Sa, 23.03. 14:30 41% 18 km
Sa, 23.03. 14:20 41% -
Sa, 23.03. 14:10 43% -
Sa, 23.03. 14:00 41% 20 km
Sa, 23.03. 13:30 43% 17 km
Sa, 23.03. 13:00 47% 17 km
Sa, 23.03. 12:30 48% 17 km
Sa, 23.03. 12:00 49% 17 km
Ortszeit Niederschlagsmenge Niederschlagsart
Sa, 23.03. 13:00 0.0 l/m2 in 6 Std. -
Sa, 23.03. 7:00 0.0 l/m2 in 12 Std. -
Sa, 23.03. 1:00 0.0 l/m2 in 6 Std. -
Fr, 22.03. 19:00 0.0 l/m2 in 12 Std. -
Fr, 22.03. 13:00 0.0 l/m2 in 6 Std. -
Fr, 22.03. 7:00 0.0 l/m2 in 12 Std. -
Fr, 22.03. 1:00 0.0 l/m2 in 6 Std. -
Do, 21.03. 19:00 0.0 l/m2 in 12 Std. -
Ortszeit Niederschlagsmenge Niederschlagsart
Sa, 23.03. 15:00 0.0 l/m2 in 1 Std. -
Sa, 23.03. 14:50 keine Meldung -
Sa, 23.03. 14:40 keine Meldung -
Sa, 23.03. 14:30 0.0 l/m2 in 1 Std. -
Sa, 23.03. 14:20 keine Meldung -
Sa, 23.03. 14:10 keine Meldung -
Sa, 23.03. 14:00 0.0 l/m2 in 1 Std. -
Sa, 23.03. 13:30 0.0 l/m2 in 1 Std. -
Sa, 23.03. 13:00 0.0 l/m2 in 1 Std. -
Sa, 23.03. 12:30 0.0 l/m2 in 1 Std. -
Sa, 23.03. 12:00 0.0 l/m2 in 1 Std. -
Ortszeit Stärke Spitze Richtung
km/h Bft. km/h Grad Sektor
Sa, 23.03. 13:00 6 1 15 340° N
Sa, 23.03. 7:00 0 0 11 - -
Sa, 23.03. 1:00 4 1 14 210° SW
Fr, 22.03. 19:00 11 2 22 240° SW
Fr, 22.03. 13:00 9 2 28 10° N
Fr, 22.03. 7:00 11 2 18 10° N
Fr, 22.03. 1:00 9 2 19 20° N
Do, 21.03. 19:00 14 3 29 50° NO
Ortszeit Stärke Spitze Richtung
km/h Bft. km/h Grad Sektor
Sa, 23.03. 15:00 7 2 14 350° N
Sa, 23.03. 14:50 7 2 - 350° N
Sa, 23.03. 14:40 7 2 - 50° NO
Sa, 23.03. 14:30 6 1 13 280° W
Sa, 23.03. 14:20 6 1 - 280° W
Sa, 23.03. 14:10 6 1 - 350° N
Sa, 23.03. 14:00 7 2 14 40° NO
Sa, 23.03. 13:30 6 1 15 30° NO
Sa, 23.03. 13:00 6 1 15 340° N
Sa, 23.03. 12:30 11 2 14 30° NO
Sa, 23.03. 12:00 7 2 13 30° NO
Ortszeit Untergrenze Bedeckung Gattung
total tief tief mittel hoch
Sa, 23.03. 13:00 10500 m 8/8 0/8 - - -
Sa, 23.03. 7:00 10500 m 8/8 0/8 - - -
Sa, 23.03. 1:00 - 0/8 0/8 - - -
Fr, 22.03. 19:00 9000 m 8/8 0/8 - - -
Fr, 22.03. 13:00 8700 m 8/8 0/8 - - -
Fr, 22.03. 7:00 - 0/8 0/8 - - -
Fr, 22.03. 1:00 - 0/8 0/8 - - -
Do, 21.03. 19:00 10500 m 8/8 0/8 - - -
Ortszeit Bedeckungsgrad in Achtel und Wolkenuntergrenze
Sa, 23.03. 15:00 7(10500m)
Sa, 23.03. 14:50 7(10500m)
Sa, 23.03. 14:40 1(9000m) 6(10500m)
Sa, 23.03. 14:30 7(9000m) 7(10500m)
Sa, 23.03. 14:20 7(9000m) 7(10500m)
Sa, 23.03. 14:10 8(9000m) 8(10500m)
Sa, 23.03. 14:00 8(9000m) 8(10500m)
Sa, 23.03. 13:30 8(9000m) 8(10500m)
Sa, 23.03. 13:00 8(10500m) 8(10500m)
Sa, 23.03. 12:30 7(9000m) 8(10500m)
Sa, 23.03. 12:00 8(9000m)
Ortszeit Luftdruck NN (hPa) Tendenz (hPa in 3 Std.)
Sa, 23.03. 13:00 1029 - 0,5
Sa, 23.03. 7:00 1030 + 0,3
Sa, 23.03. 1:00 1029 0,0
Fr, 22.03. 19:00 1027 - 0,1
Fr, 22.03. 13:00 1029 - 1,6
Fr, 22.03. 7:00 1032 - 0,2
Fr, 22.03. 1:00 1032 - 0,6
Do, 21.03. 19:00 1031 - 0,4
Ortszeit Luftdruck NN (hPa) Tendenz (hPa in 3 Std.)
Sa, 23.03. 15:00 1028 - 0,9
Sa, 23.03. 14:50 1028 keine Meldung
Sa, 23.03. 14:40 1028 keine Meldung
Sa, 23.03. 14:30 1028 - 0,9
Sa, 23.03. 14:20 1028 keine Meldung
Sa, 23.03. 14:10 1028 keine Meldung
Sa, 23.03. 14:00 1028 - 0,8
Sa, 23.03. 13:30 1028 - 0,7
Sa, 23.03. 13:00 1029 - 0,5
Sa, 23.03. 12:30 1029 - 0,3
Sa, 23.03. 12:00 1029 0,0
Ortszeit Schneehöhe (cm)
Sa, 23.03. 13:00 0
Sa, 23.03. 7:00 0
Sa, 23.03. 1:00 0
Fr, 22.03. 19:00 0
Fr, 22.03. 13:00 0
Fr, 22.03. 7:00 0
Fr, 22.03. 1:00 0
Do, 21.03. 19:00 0
Ortszeit Schneehöhe (cm)
Sa, 23.03. 15:00 0
Sa, 23.03. 14:50 0
Sa, 23.03. 14:40 0
Sa, 23.03. 14:30 0
Sa, 23.03. 14:20 0
Sa, 23.03. 14:10 0
Sa, 23.03. 14:00 0
Sa, 23.03. 13:30 0
Sa, 23.03. 13:00 0
Sa, 23.03. 12:30 0
Sa, 23.03. 12:00 0
Link zu dieser Seite / Seite empfehlen

Das Wetter in ...